sensor_id;sensor_type;location;lat;lon;timestamp;P1;durP1;ratioP1;P2;durP2;ratioP2
40150;SDS011;25866;52.420;10.640;2023-07-13T00:01:58;3.50;;;1.73;;
40150;SDS011;25866;52.420;10.640;2023-07-13T00:04:24;5.57;;;2.40;;
40150;SDS011;25866;52.420;10.640;2023-07-13T00:06:51;4.13;;;1.90;;
40150;SDS011;25866;52.420;10.640;2023-07-13T00:09:18;2.70;;;1.70;;
40150;SDS011;25866;52.420;10.640;2023-07-13T00:11:44;4.60;;;1.90;;
40150;SDS011;25866;52.420;10.640;2023-07-13T00:14:13;5.47;;;2.00;;
40150;SDS011;25866;52.420;10.640;2023-07-13T00:16:40;4.18;;;1.80;;
40150;SDS011;25866;52.420;10.640;2023-07-13T00:19:08;4.00;;;1.88;;
40150;SDS011;25866;52.420;10.640;2023-07-13T00:21:35;4.55;;;1.75;;
40150;SDS011;25866;52.420;10.640;2023-07-13T00:24:03;3.83;;;1.88;;
40150;SDS011;25866;52.420;10.640;2023-07-13T00:26:29;4.53;;;1.65;;
40150;SDS011;25866;52.420;10.640;2023-07-13T00:28:55;8.23;;;2.15;;
40150;SDS011;25866;52.420;10.640;2023-07-13T00:31:20;4.20;;;1.90;;
40150;SDS011;25866;52.420;10.640;2023-07-13T00:33:46;5.53;;;2.00;;
40150;SDS011;25866;52.420;10.640;2023-07-13T00:36:12;3.00;;;1.92;;
40150;SDS011;25866;52.420;10.640;2023-07-13T00:38:38;3.70;;;2.15;;
40150;SDS011;25866;52.420;10.640;2023-07-13T00:41:04;6.90;;;1.90;;
40150;SDS011;25866;52.420;10.640;2023-07-13T00:43:35;3.65;;;1.83;;
40150;SDS011;25866;52.420;10.640;2023-07-13T00:48:31;4.65;;;1.80;;
40150;SDS011;25866;52.420;10.640;2023-07-13T00:50:59;2.80;;;2.00;;
40150;SDS011;25866;52.420;10.640;2023-07-13T00:53:27;4.25;;;1.88;;
40150;SDS011;25866;52.420;10.640;2023-07-13T00:55:55;4.22;;;2.03;;
40150;SDS011;25866;52.420;10.640;2023-07-13T00:58:23;5.88;;;2.33;;
40150;SDS011;25866;52.420;10.640;2023-07-13T01:00:51;7.50;;;2.47;;
40150;SDS011;25866;52.420;10.640;2023-07-13T01:03:17;5.18;;;2.10;;
40150;SDS011;25866;52.420;10.640;2023-07-13T01:05:51;3.58;;;2.20;;
40150;SDS011;25866;52.420;10.640;2023-07-13T01:08:19;4.45;;;2.33;;
40150;SDS011;25866;52.420;10.640;2023-07-13T01:10:53;4.07;;;2.00;;
40150;SDS011;25866;52.420;10.640;2023-07-13T01:13:20;3.15;;;2.10;;
40150;SDS011;25866;52.420;10.640;2023-07-13T01:15:47;3.97;;;2.20;;
40150;SDS011;25866;52.420;10.640;2023-07-13T01:20:54;5.18;;;2.17;;
40150;SDS011;25866;52.420;10.640;2023-07-13T01:23:22;7.53;;;2.30;;
40150;SDS011;25866;52.420;10.640;2023-07-13T01:25:52;4.50;;;2.22;;
40150;SDS011;25866;52.420;10.640;2023-07-13T01:28:18;4.03;;;2.30;;
40150;SDS011;25866;52.420;10.640;2023-07-13T01:30:45;4.00;;;2.28;;
40150;SDS011;25866;52.420;10.640;2023-07-13T01:33:12;5.97;;;1.95;;
40150;SDS011;25866;52.420;10.640;2023-07-13T01:35:41;5.75;;;2.53;;
40150;SDS011;25866;52.420;10.640;2023-07-13T01:38:07;5.95;;;2.40;;
40150;SDS011;25866;52.420;10.640;2023-07-13T01:40:33;4.88;;;2.20;;
40150;SDS011;25866;52.420;10.640;2023-07-13T01:42:59;3.60;;;2.00;;
40150;SDS011;25866;52.420;10.640;2023-07-13T01:45:26;4.47;;;1.98;;
40150;SDS011;25866;52.420;10.640;2023-07-13T01:47:51;4.40;;;2.13;;
40150;SDS011;25866;52.420;10.640;2023-07-13T01:50:17;4.53;;;2.22;;
40150;SDS011;25866;52.420;10.640;2023-07-13T01:52:43;4.57;;;2.28;;
40150;SDS011;25866;52.420;10.640;2023-07-13T01:55:10;4.45;;;2.20;;
40150;SDS011;25866;52.420;10.640;2023-07-13T01:57:36;3.25;;;2.00;;
40150;SDS011;25866;52.420;10.640;2023-07-13T02:00:05;5.38;;;2.22;;
40150;SDS011;25866;52.420;10.640;2023-07-13T02:02:32;6.13;;;2.40;;
40150;SDS011;25866;52.420;10.640;2023-07-13T02:04:59;5.93;;;2.33;;
40150;SDS011;25866;52.420;10.640;2023-07-13T02:07:24;3.90;;;2.20;;
40150;SDS011;25866;52.420;10.640;2023-07-13T02:09:50;4.93;;;2.50;;
40150;SDS011;25866;52.420;10.640;2023-07-13T02:12:16;5.68;;;2.22;;
40150;SDS011;25866;52.420;10.640;2023-07-13T02:14:42;6.97;;;2.53;;
40150;SDS011;25866;52.420;10.640;2023-07-13T02:17:09;4.63;;;2.50;;
40150;SDS011;25866;52.420;10.640;2023-07-13T02:19:35;5.22;;;2.05;;
40150;SDS011;25866;52.420;10.640;2023-07-13T02:22:01;4.75;;;2.60;;
40150;SDS011;25866;52.420;10.640;2023-07-13T02:24:31;5.82;;;2.63;;
40150;SDS011;25866;52.420;10.640;2023-07-13T02:26:57;7.60;;;2.50;;
40150;SDS011;25866;52.420;10.640;2023-07-13T02:29:23;4.95;;;2.33;;
40150;SDS011;25866;52.420;10.640;2023-07-13T02:31:49;4.63;;;2.50;;
40150;SDS011;25866;52.420;10.640;2023-07-13T02:34:15;6.13;;;2.35;;
40150;SDS011;25866;52.420;10.640;2023-07-13T02:36:41;4.22;;;2.30;;
40150;SDS011;25866;52.420;10.640;2023-07-13T02:39:07;4.07;;;2.17;;
40150;SDS011;25866;52.420;10.640;2023-07-13T02:41:36;5.97;;;2.42;;
40150;SDS011;25866;52.420;10.640;2023-07-13T02:44:02;4.35;;;2.55;;
40150;SDS011;25866;52.420;10.640;2023-07-13T02:46:30;5.85;;;2.45;;
40150;SDS011;25866;52.420;10.640;2023-07-13T02:48:56;5.53;;;2.95;;
40150;SDS011;25866;52.420;10.640;2023-07-13T02:51:22;4.90;;;2.53;;
40150;SDS011;25866;52.420;10.640;2023-07-13T02:53:48;3.92;;;1.95;;
40150;SDS011;25866;52.420;10.640;2023-07-13T02:56:13;5.97;;;2.50;;
40150;SDS011;25866;52.420;10.640;2023-07-13T02:58:39;5.40;;;2.50;;
40150;SDS011;25866;52.420;10.640;2023-07-13T03:01:08;5.80;;;2.60;;
40150;SDS011;25866;52.420;10.640;2023-07-13T03:03:35;6.32;;;2.72;;
40150;SDS011;25866;52.420;10.640;2023-07-13T03:06:02;7.57;;;2.70;;
40150;SDS011;25866;52.420;10.640;2023-07-13T03:08:30;4.78;;;2.72;;
40150;SDS011;25866;52.420;10.640;2023-07-13T03:10:59;5.72;;;2.35;;
40150;SDS011;25866;52.420;10.640;2023-07-13T03:13:30;3.17;;;2.35;;
40150;SDS011;25866;52.420;10.640;2023-07-13T03:16:02;4.65;;;2.63;;
40150;SDS011;25866;52.420;10.640;2023-07-13T03:18:28;2.40;;;2.00;;
40150;SDS011;25866;52.420;10.640;2023-07-13T03:20:54;4.15;;;2.40;;
40150;SDS011;25866;52.420;10.640;2023-07-13T03:23:21;7.05;;;2.22;;
40150;SDS011;25866;52.420;10.640;2023-07-13T03:25:48;6.15;;;2.45;;
40150;SDS011;25866;52.420;10.640;2023-07-13T03:28:14;6.28;;;2.65;;
40150;SDS011;25866;52.420;10.640;2023-07-13T03:30:40;4.25;;;2.00;;
40150;SDS011;25866;52.420;10.640;2023-07-13T03:33:07;6.32;;;2.28;;
40150;SDS011;25866;52.420;10.640;2023-07-13T03:38:05;8.73;;;2.70;;
40150;SDS011;25866;52.420;10.640;2023-07-13T03:40:31;5.30;;;2.30;;
40150;SDS011;25866;52.420;10.640;2023-07-13T03:42:57;5.13;;;2.17;;
40150;SDS011;25866;52.420;10.640;2023-07-13T03:45:22;4.70;;;2.20;;
40150;SDS011;25866;52.420;10.640;2023-07-13T03:47:48;4.63;;;2.28;;
40150;SDS011;25866;52.420;10.640;2023-07-13T03:50:14;5.35;;;2.10;;
40150;SDS011;25866;52.420;10.640;2023-07-13T03:52:40;7.25;;;2.50;;
40150;SDS011;25866;52.420;10.640;2023-07-13T03:55:05;3.95;;;2.25;;
40150;SDS011;25866;52.420;10.640;2023-07-13T03:57:33;6.57;;;2.35;;
40150;SDS011;25866;52.420;10.640;2023-07-13T03:59:59;4.43;;;2.15;;
40150;SDS011;25866;52.420;10.640;2023-07-13T04:02:25;5.10;;;2.35;;
40150;SDS011;25866;52.420;10.640;2023-07-13T04:04:51;4.70;;;2.00;;
40150;SDS011;25866;52.420;10.640;2023-07-13T04:07:19;4.13;;;2.17;;
40150;SDS011;25866;52.420;10.640;2023-07-13T04:09:45;7.22;;;2.50;;
40150;SDS011;25866;52.420;10.640;2023-07-13T04:12:13;5.55;;;2.30;;
40150;SDS011;25866;52.420;10.640;2023-07-13T04:14:40;9.07;;;2.55;;
40150;SDS011;25866;52.420;10.640;2023-07-13T04:17:05;3.42;;;2.03;;
40150;SDS011;25866;52.420;10.640;2023-07-13T04:19:31;3.83;;;1.95;;
40150;SDS011;25866;52.420;10.640;2023-07-13T04:21:57;4.75;;;2.10;;
40150;SDS011;25866;52.420;10.640;2023-07-13T04:24:22;5.15;;;2.00;;
40150;SDS011;25866;52.420;10.640;2023-07-13T04:26:54;5.47;;;2.38;;
40150;SDS011;25866;52.420;10.640;2023-07-13T04:29:24;5.25;;;2.15;;
40150;SDS011;25866;52.420;10.640;2023-07-13T04:31:50;5.45;;;2.20;;
40150;SDS011;25866;52.420;10.640;2023-07-13T04:34:15;4.75;;;2.25;;
40150;SDS011;25866;52.420;10.640;2023-07-13T04:36:50;6.22;;;2.30;;
40150;SDS011;25866;52.420;10.640;2023-07-13T04:39:18;7.90;;;2.00;;
40150;SDS011;25866;52.420;10.640;2023-07-13T04:41:45;6.50;;;2.10;;
40150;SDS011;25866;52.420;10.640;2023-07-13T04:44:11;3.50;;;2.05;;
40150;SDS011;25866;52.420;10.640;2023-07-13T04:49:07;7.38;;;2.50;;
40150;SDS011;25866;52.420;10.640;2023-07-13T04:51:33;4.68;;;2.10;;
40150;SDS011;25866;52.420;10.640;2023-07-13T04:53:59;4.93;;;1.90;;
40150;SDS011;25866;52.420;10.640;2023-07-13T04:59:02;3.83;;;1.90;;
40150;SDS011;25866;52.420;10.640;2023-07-13T05:01:28;4.47;;;1.77;;
40150;SDS011;25866;52.420;10.640;2023-07-13T05:03:53;3.90;;;2.05;;
40150;SDS011;25866;52.420;10.640;2023-07-13T05:06:22;4.13;;;1.80;;
40150;SDS011;25866;52.420;10.640;2023-07-13T05:08:48;3.72;;;1.60;;
40150;SDS011;25866;52.420;10.640;2023-07-13T05:11:14;4.57;;;1.60;;
40150;SDS011;25866;52.420;10.640;2023-07-13T05:13:39;5.43;;;1.80;;
40150;SDS011;25866;52.420;10.640;2023-07-13T05:16:05;7.53;;;2.05;;
40150;SDS011;25866;52.420;10.640;2023-07-13T05:18:33;6.43;;;1.73;;
40150;SDS011;25866;52.420;10.640;2023-07-13T05:20:59;5.57;;;2.10;;
40150;SDS011;25866;52.420;10.640;2023-07-13T05:23:31;4.07;;;1.75;;
40150;SDS011;25866;52.420;10.640;2023-07-13T05:25:57;6.05;;;1.73;;
40150;SDS011;25866;52.420;10.640;2023-07-13T05:28:25;5.15;;;1.77;;
40150;SDS011;25866;52.420;10.640;2023-07-13T05:30:52;6.15;;;2.08;;
40150;SDS011;25866;52.420;10.640;2023-07-13T05:33:19;3.17;;;1.77;;
40150;SDS011;25866;52.420;10.640;2023-07-13T05:35:44;4.25;;;1.70;;
40150;SDS011;25866;52.420;10.640;2023-07-13T05:38:19;5.75;;;1.70;;
40150;SDS011;25866;52.420;10.640;2023-07-13T05:40:45;5.55;;;1.88;;
40150;SDS011;25866;52.420;10.640;2023-07-13T05:43:11;7.05;;;1.90;;
40150;SDS011;25866;52.420;10.640;2023-07-13T05:45:38;4.43;;;1.95;;
40150;SDS011;25866;52.420;10.640;2023-07-13T05:48:05;4.50;;;1.60;;
40150;SDS011;25866;52.420;10.640;2023-07-13T05:50:31;8.10;;;1.80;;
40150;SDS011;25866;52.420;10.640;2023-07-13T05:52:57;5.70;;;1.80;;
40150;SDS011;25866;52.420;10.640;2023-07-13T05:55:23;9.15;;;1.65;;
40150;SDS011;25866;52.420;10.640;2023-07-13T05:57:50;5.53;;;1.90;;
40150;SDS011;25866;52.420;10.640;2023-07-13T06:00:16;6.35;;;1.92;;
40150;SDS011;25866;52.420;10.640;2023-07-13T06:02:42;3.78;;;1.67;;
40150;SDS011;25866;52.420;10.640;2023-07-13T06:05:08;4.57;;;1.50;;
40150;SDS011;25866;52.420;10.640;2023-07-13T06:07:34;5.72;;;1.92;;
40150;SDS011;25866;52.420;10.640;2023-07-13T06:09:59;7.70;;;1.65;;
40150;SDS011;25866;52.420;10.640;2023-07-13T06:12:27;3.55;;;1.60;;
40150;SDS011;25866;52.420;10.640;2023-07-13T06:14:53;4.00;;;1.50;;
40150;SDS011;25866;52.420;10.640;2023-07-13T06:17:18;4.70;;;1.60;;
40150;SDS011;25866;52.420;10.640;2023-07-13T06:19:44;4.68;;;1.60;;
40150;SDS011;25866;52.420;10.640;2023-07-13T06:22:10;4.43;;;1.70;;
40150;SDS011;25866;52.420;10.640;2023-07-13T06:24:35;8.77;;;1.52;;
40150;SDS011;25866;52.420;10.640;2023-07-13T06:27:01;4.32;;;1.55;;
40150;SDS011;25866;52.420;10.640;2023-07-13T06:29:27;5.85;;;1.73;;
40150;SDS011;25866;52.420;10.640;2023-07-13T06:31:53;7.47;;;1.50;;
40150;SDS011;25866;52.420;10.640;2023-07-13T06:34:18;7.47;;;2.22;;
40150;SDS011;25866;52.420;10.640;2023-07-13T06:36:45;5.88;;;1.85;;
40150;SDS011;25866;52.420;10.640;2023-07-13T06:39:13;5.53;;;1.80;;
40150;SDS011;25866;52.420;10.640;2023-07-13T06:41:39;5.47;;;1.75;;
40150;SDS011;25866;52.420;10.640;2023-07-13T06:44:05;4.90;;;1.58;;
40150;SDS011;25866;52.420;10.640;2023-07-13T06:46:31;6.35;;;1.67;;
40150;SDS011;25866;52.420;10.640;2023-07-13T06:48:57;5.13;;;1.50;;
40150;SDS011;25866;52.420;10.640;2023-07-13T06:51:23;4.63;;;1.50;;
40150;SDS011;25866;52.420;10.640;2023-07-13T06:53:49;3.85;;;1.75;;
40150;SDS011;25866;52.420;10.640;2023-07-13T06:56:15;6.03;;;1.50;;
40150;SDS011;25866;52.420;10.640;2023-07-13T06:58:43;7.55;;;1.95;;
40150;SDS011;25866;52.420;10.640;2023-07-13T07:01:09;6.82;;;1.67;;
40150;SDS011;25866;52.420;10.640;2023-07-13T07:03:35;5.65;;;1.80;;
40150;SDS011;25866;52.420;10.640;2023-07-13T07:06:12;6.75;;;1.60;;
40150;SDS011;25866;52.420;10.640;2023-07-13T07:11:18;5.78;;;1.77;;
40150;SDS011;25866;52.420;10.640;2023-07-13T07:13:47;14.43;;;4.40;;
40150;SDS011;25866;52.420;10.640;2023-07-13T07:16:13;10.00;;;2.00;;
40150;SDS011;25866;52.420;10.640;2023-07-13T07:18:39;10.05;;;1.83;;
40150;SDS011;25866;52.420;10.640;2023-07-13T07:21:04;5.82;;;1.90;;
40150;SDS011;25866;52.420;10.640;2023-07-13T07:23:30;6.22;;;2.17;;
40150;SDS011;25866;52.420;10.640;2023-07-13T07:25:56;4.38;;;1.60;;
40150;SDS011;25866;52.420;10.640;2023-07-13T07:28:29;7.43;;;1.90;;
40150;SDS011;25866;52.420;10.640;2023-07-13T07:30:56;7.15;;;1.80;;
40150;SDS011;25866;52.420;10.640;2023-07-13T07:33:23;10.48;;;2.05;;
40150;SDS011;25866;52.420;10.640;2023-07-13T07:35:49;5.13;;;1.65;;
40150;SDS011;25866;52.420;10.640;2023-07-13T07:38:15;7.72;;;2.20;;
40150;SDS011;25866;52.420;10.640;2023-07-13T07:40:41;6.10;;;2.00;;
40150;SDS011;25866;52.420;10.640;2023-07-13T07:43:08;4.82;;;2.33;;
40150;SDS011;25866;52.420;10.640;2023-07-13T07:45:35;10.88;;;2.53;;
40150;SDS011;25866;52.420;10.640;2023-07-13T07:48:04;9.32;;;2.40;;
40150;SDS011;25866;52.420;10.640;2023-07-13T07:50:31;10.10;;;2.28;;
40150;SDS011;25866;52.420;10.640;2023-07-13T07:52:57;8.38;;;2.05;;
40150;SDS011;25866;52.420;10.640;2023-07-13T07:55:23;6.38;;;1.77;;
40150;SDS011;25866;52.420;10.640;2023-07-13T07:57:53;5.88;;;1.70;;
40150;SDS011;25866;52.420;10.640;2023-07-13T08:00:19;8.20;;;1.60;;
40150;SDS011;25866;52.420;10.640;2023-07-13T08:02:45;6.55;;;1.83;;
40150;SDS011;25866;52.420;10.640;2023-07-13T08:05:11;8.85;;;1.83;;
40150;SDS011;25866;52.420;10.640;2023-07-13T08:07:38;5.85;;;1.42;;
40150;SDS011;25866;52.420;10.640;2023-07-13T08:10:04;6.68;;;1.65;;
40150;SDS011;25866;52.420;10.640;2023-07-13T08:12:35;9.25;;;1.70;;
40150;SDS011;25866;52.420;10.640;2023-07-13T08:15:01;4.60;;;1.80;;
40150;SDS011;25866;52.420;10.640;2023-07-13T08:17:28;9.82;;;1.67;;
40150;SDS011;25866;52.420;10.640;2023-07-13T08:19:54;5.32;;;1.55;;
40150;SDS011;25866;52.420;10.640;2023-07-13T08:22:20;3.65;;;1.65;;
40150;SDS011;25866;52.420;10.640;2023-07-13T08:24:46;3.03;;;1.35;;
40150;SDS011;25866;52.420;10.640;2023-07-13T08:27:20;4.18;;;1.50;;
40150;SDS011;25866;52.420;10.640;2023-07-13T08:29:47;4.15;;;1.50;;
40150;SDS011;25866;52.420;10.640;2023-07-13T08:32:14;4.78;;;1.52;;
40150;SDS011;25866;52.420;10.640;2023-07-13T08:34:40;4.90;;;1.50;;
40150;SDS011;25866;52.420;10.640;2023-07-13T08:37:06;7.63;;;1.95;;
40150;SDS011;25866;52.420;10.640;2023-07-13T08:39:40;5.45;;;1.75;;
40150;SDS011;25866;52.420;10.640;2023-07-13T08:45:06;6.35;;;1.52;;
40150;SDS011;25866;52.420;10.640;2023-07-13T08:47:40;9.02;;;1.80;;
40150;SDS011;25866;52.420;10.640;2023-07-13T08:50:15;2.83;;;1.20;;
40150;SDS011;25866;52.420;10.640;2023-07-13T08:52:46;5.22;;;1.75;;
40150;SDS011;25866;52.420;10.640;2023-07-13T08:55:17;5.43;;;1.50;;
40150;SDS011;25866;52.420;10.640;2023-07-13T08:57:54;4.53;;;1.50;;
40150;SDS011;25866;52.420;10.640;2023-07-13T09:00:35;9.57;;;1.50;;
40150;SDS011;25866;52.420;10.640;2023-07-13T09:03:23;5.80;;;1.73;;
40150;SDS011;25866;52.420;10.640;2023-07-13T09:05:58;5.45;;;1.70;;
40150;SDS011;25866;52.420;10.640;2023-07-13T09:17:02;6.28;;;1.40;;
40150;SDS011;25866;52.420;10.640;2023-07-13T09:19:34;5.78;;;1.65;;
40150;SDS011;25866;52.420;10.640;2023-07-13T09:22:01;5.70;;;1.58;;
40150;SDS011;25866;52.420;10.640;2023-07-13T09:24:41;3.78;;;1.65;;
40150;SDS011;25866;52.420;10.640;2023-07-13T09:27:23;9.25;;;1.80;;
40150;SDS011;25866;52.420;10.640;2023-07-13T09:32:41;9.15;;;1.83;;
40150;SDS011;25866;52.420;10.640;2023-07-13T09:35:10;3.50;;;1.30;;
40150;SDS011;25866;52.420;10.640;2023-07-13T09:37:37;7.45;;;1.60;;
40150;SDS011;25866;52.420;10.640;2023-07-13T09:40:09;3.70;;;1.60;;
40150;SDS011;25866;52.420;10.640;2023-07-13T09:42:42;6.63;;;1.85;;
40150;SDS011;25866;52.420;10.640;2023-07-13T09:45:08;3.17;;;1.40;;
40150;SDS011;25866;52.420;10.640;2023-07-13T09:47:38;5.18;;;1.58;;
40150;SDS011;25866;52.420;10.640;2023-07-13T09:50:15;7.18;;;1.67;;
40150;SDS011;25866;52.420;10.640;2023-07-13T09:52:46;3.17;;;1.40;;
40150;SDS011;25866;52.420;10.640;2023-07-13T09:55:37;4.32;;;1.38;;
40150;SDS011;25866;52.420;10.640;2023-07-13T09:58:06;2.78;;;1.40;;
40150;SDS011;25866;52.420;10.640;2023-07-13T10:00:40;5.60;;;1.83;;
40150;SDS011;25866;52.420;10.640;2023-07-13T10:03:18;5.05;;;1.30;;
40150;SDS011;25866;52.420;10.640;2023-07-13T10:05:47;4.57;;;1.60;;
40150;SDS011;25866;52.420;10.640;2023-07-13T10:08:25;4.18;;;1.52;;
40150;SDS011;25866;52.420;10.640;2023-07-13T10:10:54;4.18;;;1.65;;
40150;SDS011;25866;52.420;10.640;2023-07-13T10:13:35;8.02;;;1.50;;
40150;SDS011;25866;52.420;10.640;2023-07-13T10:16:04;5.60;;;1.52;;
40150;SDS011;25866;52.420;10.640;2023-07-13T10:18:39;5.07;;;1.40;;
40150;SDS011;25866;52.420;10.640;2023-07-13T10:21:19;5.85;;;1.52;;
40150;SDS011;25866;52.420;10.640;2023-07-13T10:26:37;7.97;;;1.48;;
40150;SDS011;25866;52.420;10.640;2023-07-13T10:29:09;3.60;;;1.30;;
40150;SDS011;25866;52.420;10.640;2023-07-13T10:31:46;6.30;;;1.48;;
40150;SDS011;25866;52.420;10.640;2023-07-13T10:34:12;3.60;;;1.10;;
40150;SDS011;25866;52.420;10.640;2023-07-13T10:36:40;4.57;;;1.35;;
40150;SDS011;25866;52.420;10.640;2023-07-13T10:39:16;7.05;;;1.50;;
40150;SDS011;25866;52.420;10.640;2023-07-13T10:41:53;7.95;;;1.92;;
40150;SDS011;25866;52.420;10.640;2023-07-13T10:44:26;7.78;;;1.60;;
40150;SDS011;25866;52.420;10.640;2023-07-13T10:46:55;6.93;;;1.50;;
40150;SDS011;25866;52.420;10.640;2023-07-13T10:49:33;4.85;;;1.52;;
40150;SDS011;25866;52.420;10.640;2023-07-13T10:52:03;4.50;;;1.48;;
40150;SDS011;25866;52.420;10.640;2023-07-13T10:54:30;5.68;;;1.60;;
40150;SDS011;25866;52.420;10.640;2023-07-13T10:57:07;4.65;;;1.52;;
40150;SDS011;25866;52.420;10.640;2023-07-13T11:00:30;2.88;;;1.25;;
40150;SDS011;25866;52.420;10.640;2023-07-13T11:02:43;4.13;;;1.33;;
40150;SDS011;25866;52.420;10.640;2023-07-13T11:05:30;5.28;;;1.40;;
40150;SDS011;25866;52.420;10.640;2023-07-13T11:10:56;3.95;;;1.42;;
40150;SDS011;25866;52.420;10.640;2023-07-13T11:13:57;4.38;;;1.40;;
40150;SDS011;25866;52.420;10.640;2023-07-13T11:21:17;5.97;;;1.33;;
40150;SDS011;25866;52.420;10.640;2023-07-13T11:23:44;4.03;;;1.40;;
40150;SDS011;25866;52.420;10.640;2023-07-13T11:29:24;4.38;;;1.30;;
40150;SDS011;25866;52.420;10.640;2023-07-13T11:32:21;5.68;;;1.73;;
40150;SDS011;25866;52.420;10.640;2023-07-13T11:34:51;4.53;;;1.40;;
40150;SDS011;25866;52.420;10.640;2023-07-13T11:37:19;3.20;;;1.13;;
40150;SDS011;25866;52.420;10.640;2023-07-13T11:39:46;4.50;;;1.70;;
40150;SDS011;25866;52.420;10.640;2023-07-13T11:42:16;3.30;;;1.52;;
40150;SDS011;25866;52.420;10.640;2023-07-13T11:44:48;7.28;;;1.70;;
40150;SDS011;25866;52.420;10.640;2023-07-13T11:47:22;5.00;;;1.65;;
40150;SDS011;25866;52.420;10.640;2023-07-13T11:49:53;4.60;;;1.40;;
40150;SDS011;25866;52.420;10.640;2023-07-13T11:52:31;3.60;;;1.27;;
40150;SDS011;25866;52.420;10.640;2023-07-13T11:55:03;7.82;;;1.50;;
40150;SDS011;25866;52.420;10.640;2023-07-13T11:57:40;7.03;;;1.73;;
40150;SDS011;25866;52.420;10.640;2023-07-13T12:00:17;2.25;;;1.10;;
40150;SDS011;25866;52.420;10.640;2023-07-13T12:02:48;5.55;;;1.35;;
40150;SDS011;25866;52.420;10.640;2023-07-13T12:05:16;6.75;;;1.35;;
40150;SDS011;25866;52.420;10.640;2023-07-13T12:07:45;6.05;;;1.30;;
40150;SDS011;25866;52.420;10.640;2023-07-13T12:10:22;5.70;;;1.20;;
40150;SDS011;25866;52.420;10.640;2023-07-13T12:13:02;6.22;;;1.48;;
40150;SDS011;25866;52.420;10.640;2023-07-13T12:15:38;3.42;;;1.33;;
40150;SDS011;25866;52.420;10.640;2023-07-13T12:18:15;1.95;;;1.20;;
40150;SDS011;25866;52.420;10.640;2023-07-13T12:20:45;3.92;;;1.30;;
40150;SDS011;25866;52.420;10.640;2023-07-13T12:23:31;4.88;;;1.63;;
40150;SDS011;25866;52.420;10.640;2023-07-13T12:26:01;5.10;;;1.10;;
40150;SDS011;25866;52.420;10.640;2023-07-13T12:31:01;3.88;;;1.10;;
40150;SDS011;25866;52.420;10.640;2023-07-13T12:33:46;3.35;;;1.00;;
40150;SDS011;25866;52.420;10.640;2023-07-13T12:36:12;4.47;;;1.23;;
40150;SDS011;25866;52.420;10.640;2023-07-13T12:38:37;9.73;;;1.48;;
40150;SDS011;25866;52.420;10.640;2023-07-13T12:41:03;4.80;;;1.65;;
40150;SDS011;25866;52.420;10.640;2023-07-13T12:43:39;4.93;;;1.10;;
40150;SDS011;25866;52.420;10.640;2023-07-13T12:46:14;5.00;;;1.23;;
40150;SDS011;25866;52.420;10.640;2023-07-13T12:48:50;4.10;;;1.27;;
40150;SDS011;25866;52.420;10.640;2023-07-13T12:51:21;6.55;;;1.50;;
40150;SDS011;25866;52.420;10.640;2023-07-13T12:53:49;4.25;;;1.33;;
40150;SDS011;25866;52.420;10.640;2023-07-13T12:56:21;3.20;;;1.20;;
40150;SDS011;25866;52.420;10.640;2023-07-13T12:58:48;2.97;;;1.20;;
40150;SDS011;25866;52.420;10.640;2023-07-13T13:01:20;5.15;;;1.13;;
40150;SDS011;25866;52.420;10.640;2023-07-13T13:03:49;3.90;;;1.20;;
40150;SDS011;25866;52.420;10.640;2023-07-13T13:08:45;3.53;;;1.40;;
40150;SDS011;25866;52.420;10.640;2023-07-13T13:11:17;2.65;;;1.15;;
40150;SDS011;25866;52.420;10.640;2023-07-13T13:13:49;4.55;;;1.60;;
40150;SDS011;25866;52.420;10.640;2023-07-13T13:16:35;3.65;;;1.40;;
40150;SDS011;25866;52.420;10.640;2023-07-13T13:21:39;2.22;;;1.08;;
40150;SDS011;25866;52.420;10.640;2023-07-13T13:24:23;3.42;;;1.20;;
40150;SDS011;25866;52.420;10.640;2023-07-13T13:26:51;3.63;;;1.30;;
40150;SDS011;25866;52.420;10.640;2023-07-13T13:29:19;3.38;;;1.10;;
40150;SDS011;25866;52.420;10.640;2023-07-13T13:31:49;6.68;;;1.50;;
40150;SDS011;25866;52.420;10.640;2023-07-13T13:36:44;5.70;;;1.30;;
40150;SDS011;25866;52.420;10.640;2023-07-13T13:39:19;3.05;;;1.20;;
40150;SDS011;25866;52.420;10.640;2023-07-13T13:42:01;4.40;;;1.20;;
40150;SDS011;25866;52.420;10.640;2023-07-13T13:46:56;2.47;;;1.40;;
40150;SDS011;25866;52.420;10.640;2023-07-13T13:49:26;5.80;;;1.73;;
40150;SDS011;25866;52.420;10.640;2023-07-13T13:51:53;7.68;;;1.50;;
40150;SDS011;25866;52.420;10.640;2023-07-13T13:54:25;3.10;;;1.50;;
40150;SDS011;25866;52.420;10.640;2023-07-13T13:56:52;2.42;;;1.00;;
40150;SDS011;25866;52.420;10.640;2023-07-13T13:59:18;3.53;;;1.40;;
40150;SDS011;25866;52.420;10.640;2023-07-13T14:01:45;3.50;;;1.20;;
40150;SDS011;25866;52.420;10.640;2023-07-13T14:04:21;2.28;;;1.25;;
40150;SDS011;25866;52.420;10.640;2023-07-13T14:06:48;4.03;;;1.42;;
40150;SDS011;25866;52.420;10.640;2023-07-13T14:09:16;3.65;;;1.60;;
40150;SDS011;25866;52.420;10.640;2023-07-13T14:11:44;2.60;;;1.25;;
40150;SDS011;25866;52.420;10.640;2023-07-13T14:14:15;4.65;;;1.30;;
40150;SDS011;25866;52.420;10.640;2023-07-13T14:16:43;6.93;;;1.15;;
40150;SDS011;25866;52.420;10.640;2023-07-13T14:19:11;7.55;;;1.60;;
40150;SDS011;25866;52.420;10.640;2023-07-13T14:21:39;4.57;;;1.42;;
40150;SDS011;25866;52.420;10.640;2023-07-13T14:24:12;3.60;;;1.58;;
40150;SDS011;25866;52.420;10.640;2023-07-13T14:26:39;5.95;;;1.48;;
40150;SDS011;25866;52.420;10.640;2023-07-13T14:29:16;3.60;;;1.42;;
40150;SDS011;25866;52.420;10.640;2023-07-13T14:31:44;3.85;;;1.38;;
40150;SDS011;25866;52.420;10.640;2023-07-13T14:34:17;3.42;;;1.20;;
40150;SDS011;25866;52.420;10.640;2023-07-13T14:36:47;5.40;;;1.35;;
40150;SDS011;25866;52.420;10.640;2023-07-13T14:39:15;4.13;;;1.50;;
40150;SDS011;25866;52.420;10.640;2023-07-13T14:41:53;5.15;;;1.50;;
40150;SDS011;25866;52.420;10.640;2023-07-13T14:47:07;1.88;;;1.35;;
40150;SDS011;25866;52.420;10.640;2023-07-13T14:49:35;2.85;;;1.30;;
40150;SDS011;25866;52.420;10.640;2023-07-13T14:52:14;2.83;;;1.50;;
40150;SDS011;25866;52.420;10.640;2023-07-13T14:54:43;2.50;;;1.40;;
40150;SDS011;25866;52.420;10.640;2023-07-13T14:57:17;3.50;;;1.65;;
40150;SDS011;25866;52.420;10.640;2023-07-13T14:59:45;2.55;;;1.23;;
40150;SDS011;25866;52.420;10.640;2023-07-13T15:04:52;5.43;;;1.42;;
40150;SDS011;25866;52.420;10.640;2023-07-13T15:07:19;3.22;;;1.48;;
40150;SDS011;25866;52.420;10.640;2023-07-13T15:09:46;2.40;;;1.30;;
40150;SDS011;25866;52.420;10.640;2023-07-13T15:12:16;5.70;;;1.48;;
40150;SDS011;25866;52.420;10.640;2023-07-13T15:14:43;3.95;;;1.40;;
40150;SDS011;25866;52.420;10.640;2023-07-13T15:17:27;4.07;;;1.73;;
40150;SDS011;25866;52.420;10.640;2023-07-13T15:20:04;4.32;;;1.90;;
40150;SDS011;25866;52.420;10.640;2023-07-13T15:22:38;5.43;;;1.92;;
40150;SDS011;25866;52.420;10.640;2023-07-13T15:25:15;2.20;;;1.02;;
40150;SDS011;25866;52.420;10.640;2023-07-13T15:27:49;2.63;;;1.48;;
40150;SDS011;25866;52.420;10.640;2023-07-13T15:30:19;3.10;;;1.70;;
40150;SDS011;25866;52.420;10.640;2023-07-13T15:32:45;2.65;;;1.45;;
40150;SDS011;25866;52.420;10.640;2023-07-13T15:35:20;3.38;;;1.38;;
40150;SDS011;25866;52.420;10.640;2023-07-13T15:37:47;2.80;;;1.38;;
40150;SDS011;25866;52.420;10.640;2023-07-13T15:40:14;3.53;;;1.50;;
40150;SDS011;25866;52.420;10.640;2023-07-13T15:42:43;4.38;;;1.60;;
40150;SDS011;25866;52.420;10.640;2023-07-13T15:47:58;2.63;;;1.42;;
40150;SDS011;25866;52.420;10.640;2023-07-13T15:50:24;3.67;;;1.65;;